sensor_id;sensor_type;location;lat;lon;timestamp;temperature;humidity
16829;DHT22;8531;48.078;11.968;2023-05-14T00:01:16;10.50;99.90
16829;DHT22;8531;48.078;11.968;2023-05-14T00:03:42;10.50;99.90
16829;DHT22;8531;48.078;11.968;2023-05-14T00:06:08;10.60;99.90
16829;DHT22;8531;48.078;11.968;2023-05-14T00:08:35;10.60;99.90
16829;DHT22;8531;48.078;11.968;2023-05-14T00:11:01;10.50;99.90
16829;DHT22;8531;48.078;11.968;2023-05-14T00:13:26;10.60;99.90
16829;DHT22;8531;48.078;11.968;2023-05-14T00:15:52;10.50;99.90
16829;DHT22;8531;48.078;11.968;2023-05-14T00:18:18;10.50;99.90
16829;DHT22;8531;48.078;11.968;2023-05-14T00:20:43;10.60;99.90
16829;DHT22;8531;48.078;11.968;2023-05-14T00:23:09;10.50;99.90
16829;DHT22;8531;48.078;11.968;2023-05-14T00:25:35;10.50;99.90
16829;DHT22;8531;48.078;11.968;2023-05-14T00:28:02;10.50;99.90
16829;DHT22;8531;48.078;11.968;2023-05-14T00:30:27;10.60;99.90
16829;DHT22;8531;48.078;11.968;2023-05-14T00:32:53;10.50;99.90
16829;DHT22;8531;48.078;11.968;2023-05-14T00:35:19;10.50;99.90
16829;DHT22;8531;48.078;11.968;2023-05-14T00:37:45;10.50;99.90
16829;DHT22;8531;48.078;11.968;2023-05-14T00:40:11;10.50;99.90
16829;DHT22;8531;48.078;11.968;2023-05-14T00:42:38;10.50;99.90
16829;DHT22;8531;48.078;11.968;2023-05-14T00:45:05;10.50;99.90
16829;DHT22;8531;48.078;11.968;2023-05-14T00:47:31;10.50;99.90
16829;DHT22;8531;48.078;11.968;2023-05-14T00:49:59;10.40;99.90
16829;DHT22;8531;48.078;11.968;2023-05-14T00:52:25;10.40;99.90
16829;DHT22;8531;48.078;11.968;2023-05-14T00:54:51;10.40;99.90
16829;DHT22;8531;48.078;11.968;2023-05-14T00:57:17;10.40;99.90
16829;DHT22;8531;48.078;11.968;2023-05-14T00:59:43;10.40;99.90
16829;DHT22;8531;48.078;11.968;2023-05-14T01:02:09;10.50;99.90
16829;DHT22;8531;48.078;11.968;2023-05-14T01:04:36;10.50;99.90
16829;DHT22;8531;48.078;11.968;2023-05-14T01:07:15;10.50;99.90
16829;DHT22;8531;48.078;11.968;2023-05-14T01:09:56;10.50;99.90
16829;DHT22;8531;48.078;11.968;2023-05-14T01:12:33;10.50;99.90
16829;DHT22;8531;48.078;11.968;2023-05-14T01:15:08;10.50;99.90
16829;DHT22;8531;48.078;11.968;2023-05-14T01:17:40;10.50;99.90
16829;DHT22;8531;48.078;11.968;2023-05-14T01:20:07;10.50;99.90
16829;DHT22;8531;48.078;11.968;2023-05-14T01:22:33;10.50;99.90
16829;DHT22;8531;48.078;11.968;2023-05-14T01:24:59;10.40;99.90
16829;DHT22;8531;48.078;11.968;2023-05-14T01:32:36;10.40;99.90
16829;DHT22;8531;48.078;11.968;2023-05-14T01:35:04;10.40;99.90
16829;DHT22;8531;48.078;11.968;2023-05-14T01:37:31;10.40;99.90
16829;DHT22;8531;48.078;11.968;2023-05-14T01:39:57;10.30;99.90
16829;DHT22;8531;48.078;11.968;2023-05-14T01:42:24;10.30;99.90
16829;DHT22;8531;48.078;11.968;2023-05-14T01:44:50;10.30;99.90
16829;DHT22;8531;48.078;11.968;2023-05-14T01:47:16;10.30;99.90
16829;DHT22;8531;48.078;11.968;2023-05-14T01:49:41;10.30;99.90
16829;DHT22;8531;48.078;11.968;2023-05-14T01:52:08;10.30;99.90
16829;DHT22;8531;48.078;11.968;2023-05-14T01:54:34;10.30;99.90
16829;DHT22;8531;48.078;11.968;2023-05-14T01:57:00;10.30;99.90
16829;DHT22;8531;48.078;11.968;2023-05-14T01:59:25;10.20;99.90
16829;DHT22;8531;48.078;11.968;2023-05-14T02:01:51;10.30;99.90
16829;DHT22;8531;48.078;11.968;2023-05-14T02:04:16;10.30;99.90
16829;DHT22;8531;48.078;11.968;2023-05-14T02:06:42;10.30;99.90
16829;DHT22;8531;48.078;11.968;2023-05-14T02:09:08;10.30;99.90
16829;DHT22;8531;48.078;11.968;2023-05-14T02:11:33;10.30;99.90
16829;DHT22;8531;48.078;11.968;2023-05-14T02:13:59;10.30;99.90
16829;DHT22;8531;48.078;11.968;2023-05-14T02:16:25;10.30;99.90
16829;DHT22;8531;48.078;11.968;2023-05-14T02:18:50;10.30;99.90
16829;DHT22;8531;48.078;11.968;2023-05-14T02:21:16;10.30;99.90
16829;DHT22;8531;48.078;11.968;2023-05-14T02:23:41;10.20;99.90
16829;DHT22;8531;48.078;11.968;2023-05-14T02:26:09;10.30;99.90
16829;DHT22;8531;48.078;11.968;2023-05-14T02:28:35;10.30;99.90
16829;DHT22;8531;48.078;11.968;2023-05-14T02:31:00;10.30;99.90
16829;DHT22;8531;48.078;11.968;2023-05-14T02:33:26;10.20;99.90
16829;DHT22;8531;48.078;11.968;2023-05-14T02:35:52;10.20;99.90
16829;DHT22;8531;48.078;11.968;2023-05-14T02:38:18;10.20;99.90
16829;DHT22;8531;48.078;11.968;2023-05-14T02:40:44;10.30;99.90
16829;DHT22;8531;48.078;11.968;2023-05-14T02:43:10;10.30;99.90
16829;DHT22;8531;48.078;11.968;2023-05-14T02:45:35;10.30;99.90
16829;DHT22;8531;48.078;11.968;2023-05-14T02:48:01;10.40;99.90
16829;DHT22;8531;48.078;11.968;2023-05-14T02:50:27;10.30;99.90
16829;DHT22;8531;48.078;11.968;2023-05-14T02:52:52;10.40;99.90
16829;DHT22;8531;48.078;11.968;2023-05-14T02:55:18;10.40;99.90
16829;DHT22;8531;48.078;11.968;2023-05-14T02:57:44;10.30;99.90
16829;DHT22;8531;48.078;11.968;2023-05-14T03:00:10;10.30;99.90
16829;DHT22;8531;48.078;11.968;2023-05-14T03:02:36;10.30;99.90
16829;DHT22;8531;48.078;11.968;2023-05-14T03:05:01;10.20;99.90
16829;DHT22;8531;48.078;11.968;2023-05-14T03:07:27;10.20;99.90
16829;DHT22;8531;48.078;11.968;2023-05-14T03:09:53;10.10;99.90
16829;DHT22;8531;48.078;11.968;2023-05-14T03:12:19;10.10;99.90
16829;DHT22;8531;48.078;11.968;2023-05-14T03:14:45;10.10;99.90
16829;DHT22;8531;48.078;11.968;2023-05-14T03:17:11;10.20;99.90
16829;DHT22;8531;48.078;11.968;2023-05-14T03:19:36;10.10;99.90
16829;DHT22;8531;48.078;11.968;2023-05-14T03:22:02;10.00;99.90
16829;DHT22;8531;48.078;11.968;2023-05-14T03:24:28;10.00;99.90
16829;DHT22;8531;48.078;11.968;2023-05-14T03:26:53;10.00;99.90
16829;DHT22;8531;48.078;11.968;2023-05-14T03:29:19;10.00;99.90
16829;DHT22;8531;48.078;11.968;2023-05-14T03:31:45;10.10;99.90
16829;DHT22;8531;48.078;11.968;2023-05-14T03:34:10;10.10;99.90
16829;DHT22;8531;48.078;11.968;2023-05-14T03:36:36;10.10;99.90
16829;DHT22;8531;48.078;11.968;2023-05-14T03:39:04;10.10;99.90
16829;DHT22;8531;48.078;11.968;2023-05-14T03:41:31;10.10;99.90
16829;DHT22;8531;48.078;11.968;2023-05-14T03:43:57;10.10;99.90
16829;DHT22;8531;48.078;11.968;2023-05-14T03:46:23;10.00;99.90
16829;DHT22;8531;48.078;11.968;2023-05-14T03:48:48;10.00;99.90
16829;DHT22;8531;48.078;11.968;2023-05-14T03:51:14;10.00;99.90
16829;DHT22;8531;48.078;11.968;2023-05-14T03:53:40;10.00;99.90
16829;DHT22;8531;48.078;11.968;2023-05-14T03:56:06;10.00;99.90
16829;DHT22;8531;48.078;11.968;2023-05-14T03:58:31;10.00;99.90
16829;DHT22;8531;48.078;11.968;2023-05-14T04:00:57;10.00;99.90
16829;DHT22;8531;48.078;11.968;2023-05-14T04:03:23;9.90;99.90
16829;DHT22;8531;48.078;11.968;2023-05-14T04:05:49;9.90;99.90
16829;DHT22;8531;48.078;11.968;2023-05-14T04:08:15;9.80;99.90
16829;DHT22;8531;48.078;11.968;2023-05-14T04:10:42;9.80;99.90
16829;DHT22;8531;48.078;11.968;2023-05-14T04:13:08;9.90;99.90
16829;DHT22;8531;48.078;11.968;2023-05-14T04:15:33;9.90;99.90
16829;DHT22;8531;48.078;11.968;2023-05-14T04:18:00;9.90;99.90
16829;DHT22;8531;48.078;11.968;2023-05-14T04:20:26;9.80;99.90
16829;DHT22;8531;48.078;11.968;2023-05-14T04:22:52;9.90;99.90
16829;DHT22;8531;48.078;11.968;2023-05-14T04:25:18;9.80;99.90
16829;DHT22;8531;48.078;11.968;2023-05-14T04:27:44;9.80;99.90
16829;DHT22;8531;48.078;11.968;2023-05-14T04:30:10;9.80;99.90
16829;DHT22;8531;48.078;11.968;2023-05-14T04:32:36;9.80;99.90
16829;DHT22;8531;48.078;11.968;2023-05-14T04:35:03;9.80;99.90
16829;DHT22;8531;48.078;11.968;2023-05-14T04:37:28;9.80;99.90
16829;DHT22;8531;48.078;11.968;2023-05-14T04:39:55;9.80;99.90
16829;DHT22;8531;48.078;11.968;2023-05-14T04:42:21;9.80;99.90
16829;DHT22;8531;48.078;11.968;2023-05-14T04:44:46;9.80;99.90
16829;DHT22;8531;48.078;11.968;2023-05-14T04:47:12;9.70;99.90
16829;DHT22;8531;48.078;11.968;2023-05-14T04:49:38;9.70;99.90
16829;DHT22;8531;48.078;11.968;2023-05-14T04:52:05;9.70;99.90
16829;DHT22;8531;48.078;11.968;2023-05-14T04:54:31;9.80;99.90
16829;DHT22;8531;48.078;11.968;2023-05-14T04:56:57;9.70;99.90
16829;DHT22;8531;48.078;11.968;2023-05-14T04:59:30;9.70;99.90
16829;DHT22;8531;48.078;11.968;2023-05-14T05:01:56;9.80;99.90
16829;DHT22;8531;48.078;11.968;2023-05-14T05:04:22;9.80;99.90
16829;DHT22;8531;48.078;11.968;2023-05-14T05:06:49;9.80;99.90
16829;DHT22;8531;48.078;11.968;2023-05-14T05:09:16;9.80;99.90
16829;DHT22;8531;48.078;11.968;2023-05-14T05:11:42;9.80;99.90
16829;DHT22;8531;48.078;11.968;2023-05-14T05:14:08;9.80;99.90
16829;DHT22;8531;48.078;11.968;2023-05-14T05:16:33;9.80;99.90
16829;DHT22;8531;48.078;11.968;2023-05-14T05:18:59;9.80;99.90
16829;DHT22;8531;48.078;11.968;2023-05-14T05:21:25;9.80;99.90
16829;DHT22;8531;48.078;11.968;2023-05-14T05:23:50;9.80;99.90
16829;DHT22;8531;48.078;11.968;2023-05-14T05:26:16;9.80;99.90
16829;DHT22;8531;48.078;11.968;2023-05-14T05:28:42;9.80;99.90
16829;DHT22;8531;48.078;11.968;2023-05-14T05:31:07;9.80;99.90
16829;DHT22;8531;48.078;11.968;2023-05-14T05:33:34;9.80;99.90
16829;DHT22;8531;48.078;11.968;2023-05-14T05:36:00;9.90;99.90
16829;DHT22;8531;48.078;11.968;2023-05-14T05:38:25;9.90;99.90
16829;DHT22;8531;48.078;11.968;2023-05-14T05:40:51;9.90;99.90
16829;DHT22;8531;48.078;11.968;2023-05-14T05:43:17;10.00;99.90
16829;DHT22;8531;48.078;11.968;2023-05-14T05:45:43;10.00;99.90
16829;DHT22;8531;48.078;11.968;2023-05-14T05:48:10;9.90;99.90
16829;DHT22;8531;48.078;11.968;2023-05-14T05:50:35;9.90;99.90
16829;DHT22;8531;48.078;11.968;2023-05-14T05:53:01;9.90;99.90
16829;DHT22;8531;48.078;11.968;2023-05-14T05:55:27;10.00;99.90
16829;DHT22;8531;48.078;11.968;2023-05-14T05:57:53;10.00;99.90
16829;DHT22;8531;48.078;11.968;2023-05-14T06:00:19;10.00;99.90
16829;DHT22;8531;48.078;11.968;2023-05-14T06:02:45;10.10;99.90
16829;DHT22;8531;48.078;11.968;2023-05-14T06:05:11;10.10;99.90
16829;DHT22;8531;48.078;11.968;2023-05-14T06:07:37;10.00;99.90
16829;DHT22;8531;48.078;11.968;2023-05-14T06:10:03;9.90;99.90
16829;DHT22;8531;48.078;11.968;2023-05-14T06:12:29;9.90;99.90
16829;DHT22;8531;48.078;11.968;2023-05-14T06:14:55;9.90;99.90
16829;DHT22;8531;48.078;11.968;2023-05-14T06:17:22;9.90;99.90
16829;DHT22;8531;48.078;11.968;2023-05-14T06:19:49;9.90;99.90
16829;DHT22;8531;48.078;11.968;2023-05-14T06:22:15;9.90;99.90
16829;DHT22;8531;48.078;11.968;2023-05-14T06:24:41;9.90;99.90
16829;DHT22;8531;48.078;11.968;2023-05-14T06:27:06;10.00;99.90
16829;DHT22;8531;48.078;11.968;2023-05-14T06:29:32;9.90;99.90
16829;DHT22;8531;48.078;11.968;2023-05-14T06:32:01;9.90;99.90
16829;DHT22;8531;48.078;11.968;2023-05-14T06:34:28;9.90;99.90
16829;DHT22;8531;48.078;11.968;2023-05-14T06:36:53;9.90;99.90
16829;DHT22;8531;48.078;11.968;2023-05-14T06:39:19;10.00;99.90
16829;DHT22;8531;48.078;11.968;2023-05-14T06:41:45;10.00;99.90
16829;DHT22;8531;48.078;11.968;2023-05-14T06:44:10;10.00;99.90
16829;DHT22;8531;48.078;11.968;2023-05-14T06:46:36;10.00;99.90
16829;DHT22;8531;48.078;11.968;2023-05-14T06:49:02;10.10;99.90
16829;DHT22;8531;48.078;11.968;2023-05-14T06:51:28;10.10;99.90
16829;DHT22;8531;48.078;11.968;2023-05-14T06:53:54;10.10;99.90
16829;DHT22;8531;48.078;11.968;2023-05-14T06:56:23;10.10;99.90
16829;DHT22;8531;48.078;11.968;2023-05-14T06:58:49;10.10;99.90
16829;DHT22;8531;48.078;11.968;2023-05-14T07:01:15;10.10;99.90
16829;DHT22;8531;48.078;11.968;2023-05-14T07:03:41;10.10;99.90
16829;DHT22;8531;48.078;11.968;2023-05-14T07:06:06;10.10;99.90
16829;DHT22;8531;48.078;11.968;2023-05-14T07:08:32;10.20;99.90
16829;DHT22;8531;48.078;11.968;2023-05-14T07:10:58;10.20;99.90
16829;DHT22;8531;48.078;11.968;2023-05-14T07:13:25;10.30;99.90
16829;DHT22;8531;48.078;11.968;2023-05-14T07:15:52;10.40;99.90
16829;DHT22;8531;48.078;11.968;2023-05-14T07:18:20;10.40;99.90
16829;DHT22;8531;48.078;11.968;2023-05-14T07:20:46;10.50;99.90
16829;DHT22;8531;48.078;11.968;2023-05-14T07:23:12;10.60;99.90
16829;DHT22;8531;48.078;11.968;2023-05-14T07:25:37;10.60;99.90
16829;DHT22;8531;48.078;11.968;2023-05-14T07:28:03;10.80;99.90
16829;DHT22;8531;48.078;11.968;2023-05-14T07:30:29;10.80;99.90
16829;DHT22;8531;48.078;11.968;2023-05-14T07:32:55;10.90;99.90
16829;DHT22;8531;48.078;11.968;2023-05-14T07:35:21;10.90;99.90
16829;DHT22;8531;48.078;11.968;2023-05-14T07:37:47;10.90;99.90
16829;DHT22;8531;48.078;11.968;2023-05-14T07:40:12;10.90;99.90
16829;DHT22;8531;48.078;11.968;2023-05-14T07:42:38;10.80;99.90
16829;DHT22;8531;48.078;11.968;2023-05-14T07:45:04;10.80;99.90
16829;DHT22;8531;48.078;11.968;2023-05-14T07:47:30;10.90;99.90
16829;DHT22;8531;48.078;11.968;2023-05-14T07:49:56;11.00;99.90
16829;DHT22;8531;48.078;11.968;2023-05-14T07:52:22;11.10;99.90
16829;DHT22;8531;48.078;11.968;2023-05-14T07:54:49;11.10;99.90
16829;DHT22;8531;48.078;11.968;2023-05-14T07:57:15;11.10;99.90
16829;DHT22;8531;48.078;11.968;2023-05-14T07:59:41;11.20;99.90
16829;DHT22;8531;48.078;11.968;2023-05-14T08:02:07;11.20;99.90
16829;DHT22;8531;48.078;11.968;2023-05-14T08:04:34;11.10;99.90
16829;DHT22;8531;48.078;11.968;2023-05-14T08:07:00;11.10;99.90
16829;DHT22;8531;48.078;11.968;2023-05-14T08:09:26;11.20;99.90
16829;DHT22;8531;48.078;11.968;2023-05-14T08:11:51;11.30;99.90
16829;DHT22;8531;48.078;11.968;2023-05-14T08:14:17;11.30;99.90
16829;DHT22;8531;48.078;11.968;2023-05-14T08:16:43;11.30;99.90
16829;DHT22;8531;48.078;11.968;2023-05-14T08:19:08;11.20;99.90
16829;DHT22;8531;48.078;11.968;2023-05-14T08:21:34;11.20;99.90
16829;DHT22;8531;48.078;11.968;2023-05-14T08:24:00;11.20;99.90
16829;DHT22;8531;48.078;11.968;2023-05-14T08:26:25;11.20;99.90
16829;DHT22;8531;48.078;11.968;2023-05-14T08:28:52;11.30;99.90
16829;DHT22;8531;48.078;11.968;2023-05-14T08:31:19;11.30;99.90
16829;DHT22;8531;48.078;11.968;2023-05-14T08:33:44;11.40;99.90
16829;DHT22;8531;48.078;11.968;2023-05-14T08:36:10;11.40;99.90
16829;DHT22;8531;48.078;11.968;2023-05-14T08:38:36;11.40;99.90
16829;DHT22;8531;48.078;11.968;2023-05-14T08:41:04;11.40;99.90
16829;DHT22;8531;48.078;11.968;2023-05-14T08:43:48;11.40;99.90
16829;DHT22;8531;48.078;11.968;2023-05-14T08:46:16;11.40;99.90
16829;DHT22;8531;48.078;11.968;2023-05-14T08:48:46;11.50;99.90
16829;DHT22;8531;48.078;11.968;2023-05-14T08:51:12;11.60;99.90
16829;DHT22;8531;48.078;11.968;2023-05-14T08:53:38;11.60;99.90
16829;DHT22;8531;48.078;11.968;2023-05-14T08:56:06;11.60;99.90
16829;DHT22;8531;48.078;11.968;2023-05-14T08:58:32;11.60;99.90
16829;DHT22;8531;48.078;11.968;2023-05-14T09:00:58;11.60;99.90
16829;DHT22;8531;48.078;11.968;2023-05-14T09:03:24;11.60;99.90
16829;DHT22;8531;48.078;11.968;2023-05-14T09:05:50;11.60;99.90
16829;DHT22;8531;48.078;11.968;2023-05-14T09:08:16;11.60;99.90
16829;DHT22;8531;48.078;11.968;2023-05-14T09:10:42;11.50;99.90
16829;DHT22;8531;48.078;11.968;2023-05-14T09:13:08;11.40;99.90
16829;DHT22;8531;48.078;11.968;2023-05-14T09:15:36;11.40;99.90
16829;DHT22;8531;48.078;11.968;2023-05-14T09:18:06;11.50;99.90
16829;DHT22;8531;48.078;11.968;2023-05-14T09:20:31;11.50;99.90
16829;DHT22;8531;48.078;11.968;2023-05-14T09:22:58;11.50;99.90
16829;DHT22;8531;48.078;11.968;2023-05-14T09:25:30;11.40;99.90
16829;DHT22;8531;48.078;11.968;2023-05-14T09:27:56;11.40;99.90
16829;DHT22;8531;48.078;11.968;2023-05-14T09:30:24;11.40;99.90
16829;DHT22;8531;48.078;11.968;2023-05-14T09:32:53;11.40;99.90
16829;DHT22;8531;48.078;11.968;2023-05-14T09:35:24;11.40;99.90
16829;DHT22;8531;48.078;11.968;2023-05-14T09:37:52;11.60;99.90
16829;DHT22;8531;48.078;11.968;2023-05-14T09:40:22;11.50;99.90
16829;DHT22;8531;48.078;11.968;2023-05-14T09:42:48;11.50;99.90
16829;DHT22;8531;48.078;11.968;2023-05-14T09:45:14;11.50;99.90
16829;DHT22;8531;48.078;11.968;2023-05-14T09:47:40;11.50;99.90
16829;DHT22;8531;48.078;11.968;2023-05-14T09:50:07;11.50;99.90
16829;DHT22;8531;48.078;11.968;2023-05-14T09:52:34;11.50;99.90
16829;DHT22;8531;48.078;11.968;2023-05-14T09:55:00;11.40;99.90
16829;DHT22;8531;48.078;11.968;2023-05-14T09:57:26;11.40;99.90
16829;DHT22;8531;48.078;11.968;2023-05-14T09:59:52;11.50;99.90
16829;DHT22;8531;48.078;11.968;2023-05-14T10:02:28;11.60;99.90
16829;DHT22;8531;48.078;11.968;2023-05-14T10:04:58;11.60;99.90
16829;DHT22;8531;48.078;11.968;2023-05-14T10:07:33;11.60;99.90
16829;DHT22;8531;48.078;11.968;2023-05-14T10:10:02;11.70;99.90
16829;DHT22;8531;48.078;11.968;2023-05-14T10:12:31;11.70;99.90
16829;DHT22;8531;48.078;11.968;2023-05-14T10:15:02;11.70;99.90
16829;DHT22;8531;48.078;11.968;2023-05-14T10:17:30;11.70;99.90
16829;DHT22;8531;48.078;11.968;2023-05-14T10:19:57;11.80;99.90
16829;DHT22;8531;48.078;11.968;2023-05-14T10:22:29;11.70;99.90
16829;DHT22;8531;48.078;11.968;2023-05-14T10:24:55;11.50;99.90
16829;DHT22;8531;48.078;11.968;2023-05-14T10:27:22;11.40;99.90
16829;DHT22;8531;48.078;11.968;2023-05-14T10:29:52;11.40;99.90
16829;DHT22;8531;48.078;11.968;2023-05-14T10:32:20;11.40;99.90
16829;DHT22;8531;48.078;11.968;2023-05-14T10:34:46;11.40;99.90
16829;DHT22;8531;48.078;11.968;2023-05-14T10:37:20;11.50;99.90
16829;DHT22;8531;48.078;11.968;2023-05-14T10:40:01;11.50;99.90
16829;DHT22;8531;48.078;11.968;2023-05-14T10:42:32;11.70;99.90
16829;DHT22;8531;48.078;11.968;2023-05-14T10:45:02;11.80;99.90
16829;DHT22;8531;48.078;11.968;2023-05-14T10:47:38;12.00;99.90
16829;DHT22;8531;48.078;11.968;2023-05-14T10:50:06;12.10;99.90
16829;DHT22;8531;48.078;11.968;2023-05-14T10:52:32;12.10;99.90
16829;DHT22;8531;48.078;11.968;2023-05-14T10:55:00;12.20;99.90
16829;DHT22;8531;48.078;11.968;2023-05-14T10:57:28;12.30;99.90
16829;DHT22;8531;48.078;11.968;2023-05-14T10:59:56;12.40;99.90
16829;DHT22;8531;48.078;11.968;2023-05-14T11:02:25;12.30;99.90
16829;DHT22;8531;48.078;11.968;2023-05-14T11:07:29;12.00;99.90
16829;DHT22;8531;48.078;11.968;2023-05-14T11:09:59;12.10;99.90
16829;DHT22;8531;48.078;11.968;2023-05-14T11:12:26;12.20;99.90
16829;DHT22;8531;48.078;11.968;2023-05-14T11:14:53;12.40;99.90
16829;DHT22;8531;48.078;11.968;2023-05-14T11:17:19;12.50;99.90
16829;DHT22;8531;48.078;11.968;2023-05-14T11:19:44;12.40;99.90
16829;DHT22;8531;48.078;11.968;2023-05-14T11:22:10;12.70;99.90
16829;DHT22;8531;48.078;11.968;2023-05-14T11:24:39;13.00;99.90
16829;DHT22;8531;48.078;11.968;2023-05-14T11:27:08;12.90;99.90
16829;DHT22;8531;48.078;11.968;2023-05-14T11:29:36;13.30;99.90
16829;DHT22;8531;48.078;11.968;2023-05-14T11:32:04;13.90;99.90
16829;DHT22;8531;48.078;11.968;2023-05-14T11:34:30;13.80;99.90
16829;DHT22;8531;48.078;11.968;2023-05-14T11:36:56;14.10;99.90
16829;DHT22;8531;48.078;11.968;2023-05-14T11:39:22;14.20;99.90
16829;DHT22;8531;48.078;11.968;2023-05-14T11:41:47;14.00;99.90
16829;DHT22;8531;48.078;11.968;2023-05-14T11:44:13;14.00;99.90
16829;DHT22;8531;48.078;11.968;2023-05-14T11:46:39;14.20;99.90
16829;DHT22;8531;48.078;11.968;2023-05-14T11:49:05;14.30;99.90
16829;DHT22;8531;48.078;11.968;2023-05-14T11:51:31;14.30;99.90
16829;DHT22;8531;48.078;11.968;2023-05-14T11:53:57;14.30;99.90
16829;DHT22;8531;48.078;11.968;2023-05-14T11:56:25;14.20;99.90
16829;DHT22;8531;48.078;11.968;2023-05-14T11:58:55;14.70;99.90
16829;DHT22;8531;48.078;11.968;2023-05-14T12:01:22;14.50;99.90
16829;DHT22;8531;48.078;11.968;2023-05-14T12:03:49;14.40;99.90
16829;DHT22;8531;48.078;11.968;2023-05-14T12:06:15;15.10;99.90
16829;DHT22;8531;48.078;11.968;2023-05-14T12:08:40;15.70;99.90
16829;DHT22;8531;48.078;11.968;2023-05-14T12:11:07;16.10;99.90
16829;DHT22;8531;48.078;11.968;2023-05-14T12:13:33;16.00;99.90
16829;DHT22;8531;48.078;11.968;2023-05-14T12:16:01;16.20;99.90
16829;DHT22;8531;48.078;11.968;2023-05-14T12:18:30;16.30;99.90
16829;DHT22;8531;48.078;11.968;2023-05-14T12:21:01;16.80;99.90
16829;DHT22;8531;48.078;11.968;2023-05-14T12:23:29;17.20;99.90
16829;DHT22;8531;48.078;11.968;2023-05-14T12:26:00;17.50;99.90
16829;DHT22;8531;48.078;11.968;2023-05-14T12:28:27;17.40;99.90
16829;DHT22;8531;48.078;11.968;2023-05-14T12:30:56;16.70;99.90
16829;DHT22;8531;48.078;11.968;2023-05-14T12:33:22;16.30;99.90
16829;DHT22;8531;48.078;11.968;2023-05-14T12:35:48;16.40;99.90
16829;DHT22;8531;48.078;11.968;2023-05-14T12:38:14;16.30;99.90
16829;DHT22;8531;48.078;11.968;2023-05-14T12:40:40;16.40;99.90
16829;DHT22;8531;48.078;11.968;2023-05-14T12:43:06;16.50;99.90
16829;DHT22;8531;48.078;11.968;2023-05-14T12:45:31;15.80;99.90
16829;DHT22;8531;48.078;11.968;2023-05-14T12:47:57;15.70;99.90
16829;DHT22;8531;48.078;11.968;2023-05-14T12:50:24;15.70;99.90
16829;DHT22;8531;48.078;11.968;2023-05-14T12:52:50;15.90;99.90
16829;DHT22;8531;48.078;11.968;2023-05-14T12:55:15;15.90;99.90
16829;DHT22;8531;48.078;11.968;2023-05-14T12:57:41;15.90;99.90
16829;DHT22;8531;48.078;11.968;2023-05-14T13:00:07;15.70;99.90
16829;DHT22;8531;48.078;11.968;2023-05-14T13:02:37;15.70;99.90
16829;DHT22;8531;48.078;11.968;2023-05-14T13:05:02;15.60;99.90
16829;DHT22;8531;48.078;11.968;2023-05-14T13:07:29;15.60;99.90
16829;DHT22;8531;48.078;11.968;2023-05-14T13:09:55;15.70;99.90
16829;DHT22;8531;48.078;11.968;2023-05-14T13:12:22;15.70;99.90
16829;DHT22;8531;48.078;11.968;2023-05-14T13:14:48;15.60;99.90
16829;DHT22;8531;48.078;11.968;2023-05-14T13:17:14;15.50;99.90
16829;DHT22;8531;48.078;11.968;2023-05-14T13:19:39;15.40;99.90
16829;DHT22;8531;48.078;11.968;2023-05-14T13:22:05;15.40;99.90
16829;DHT22;8531;48.078;11.968;2023-05-14T13:24:31;15.40;99.90
16829;DHT22;8531;48.078;11.968;2023-05-14T13:26:56;15.30;99.90
16829;DHT22;8531;48.078;11.968;2023-05-14T13:29:22;15.20;99.90
16829;DHT22;8531;48.078;11.968;2023-05-14T13:31:48;15.30;99.90
16829;DHT22;8531;48.078;11.968;2023-05-14T13:34:14;15.30;99.90
16829;DHT22;8531;48.078;11.968;2023-05-14T13:36:40;15.30;99.90
16829;DHT22;8531;48.078;11.968;2023-05-14T13:39:08;15.30;99.90
16829;DHT22;8531;48.078;11.968;2023-05-14T13:41:36;15.20;99.90
16829;DHT22;8531;48.078;11.968;2023-05-14T13:44:02;15.50;99.90
16829;DHT22;8531;48.078;11.968;2023-05-14T13:46:28;15.40;99.90
16829;DHT22;8531;48.078;11.968;2023-05-14T13:48:54;15.10;99.90
16829;DHT22;8531;48.078;11.968;2023-05-14T13:51:20;15.10;99.90
16829;DHT22;8531;48.078;11.968;2023-05-14T13:53:46;15.40;99.90
16829;DHT22;8531;48.078;11.968;2023-05-14T13:56:12;16.00;99.90
16829;DHT22;8531;48.078;11.968;2023-05-14T13:58:37;16.60;99.90
16829;DHT22;8531;48.078;11.968;2023-05-14T14:01:03;16.70;99.90
16829;DHT22;8531;48.078;11.968;2023-05-14T14:03:29;17.40;99.90
16829;DHT22;8531;48.078;11.968;2023-05-14T14:05:55;17.50;99.90
16829;DHT22;8531;48.078;11.968;2023-05-14T14:08:20;17.90;99.90
16829;DHT22;8531;48.078;11.968;2023-05-14T14:10:46;17.90;99.90
16829;DHT22;8531;48.078;11.968;2023-05-14T14:13:14;18.00;99.90
16829;DHT22;8531;48.078;11.968;2023-05-14T14:15:40;18.30;99.90
16829;DHT22;8531;48.078;11.968;2023-05-14T14:18:09;18.50;99.90
16829;DHT22;8531;48.078;11.968;2023-05-14T14:20:34;18.30;99.90
16829;DHT22;8531;48.078;11.968;2023-05-14T14:23:00;18.40;99.90
16829;DHT22;8531;48.078;11.968;2023-05-14T14:25:26;18.90;99.90
16829;DHT22;8531;48.078;11.968;2023-05-14T14:27:54;18.90;99.90
16829;DHT22;8531;48.078;11.968;2023-05-14T14:30:20;19.20;99.90
16829;DHT22;8531;48.078;11.968;2023-05-14T14:32:47;18.50;99.90
16829;DHT22;8531;48.078;11.968;2023-05-14T14:35:18;17.60;99.90
16829;DHT22;8531;48.078;11.968;2023-05-14T14:37:45;17.20;99.90
16829;DHT22;8531;48.078;11.968;2023-05-14T14:40:14;16.90;99.90
16829;DHT22;8531;48.078;11.968;2023-05-14T14:42:41;16.60;99.90
16829;DHT22;8531;48.078;11.968;2023-05-14T14:45:08;16.80;99.90
16829;DHT22;8531;48.078;11.968;2023-05-14T14:47:34;16.90;99.90
16829;DHT22;8531;48.078;11.968;2023-05-14T14:50:00;17.00;99.90
16829;DHT22;8531;48.078;11.968;2023-05-14T14:52:26;16.80;99.90
16829;DHT22;8531;48.078;11.968;2023-05-14T14:54:53;17.10;99.90
16829;DHT22;8531;48.078;11.968;2023-05-14T14:57:18;17.00;99.90
16829;DHT22;8531;48.078;11.968;2023-05-14T14:59:44;16.80;99.90
16829;DHT22;8531;48.078;11.968;2023-05-14T15:02:11;16.90;99.90
16829;DHT22;8531;48.078;11.968;2023-05-14T15:04:37;17.00;99.90
16829;DHT22;8531;48.078;11.968;2023-05-14T15:07:03;16.90;99.90
16829;DHT22;8531;48.078;11.968;2023-05-14T15:09:30;15.90;99.90
16829;DHT22;8531;48.078;11.968;2023-05-14T15:11:56;15.40;99.90
16829;DHT22;8531;48.078;11.968;2023-05-14T15:14:21;15.10;99.90
16829;DHT22;8531;48.078;11.968;2023-05-14T15:16:47;14.60;99.90
16829;DHT22;8531;48.078;11.968;2023-05-14T15:19:13;14.50;99.90
16829;DHT22;8531;48.078;11.968;2023-05-14T15:21:38;14.40;99.90
16829;DHT22;8531;48.078;11.968;2023-05-14T15:24:05;14.00;99.90
16829;DHT22;8531;48.078;11.968;2023-05-14T15:26:31;13.90;99.90
16829;DHT22;8531;48.078;11.968;2023-05-14T15:28:58;13.90;99.90
16829;DHT22;8531;48.078;11.968;2023-05-14T15:31:24;13.70;99.90
16829;DHT22;8531;48.078;11.968;2023-05-14T15:33:51;13.50;99.90
16829;DHT22;8531;48.078;11.968;2023-05-14T15:36:18;13.30;99.90